createdAt,value
2018-12-07T00:00:42.663Z,1.60
2018-12-07T00:03:10.156Z,1.55
2018-12-07T00:05:37.662Z,1.72
2018-12-07T00:08:05.171Z,1.80
2018-12-07T00:10:32.803Z,2.87
2018-12-07T00:13:00.306Z,1.73
2018-12-07T00:15:27.810Z,2.20
2018-12-07T00:17:55.302Z,1.70
2018-12-07T00:20:22.823Z,2.10
2018-12-07T00:22:50.315Z,2.00
2018-12-07T00:25:17.809Z,1.52
2018-12-07T00:27:45.326Z,1.50
2018-12-07T00:30:12.910Z,1.50
2018-12-07T00:32:40.419Z,1.62
2018-12-07T00:35:08.003Z,1.50
2018-12-07T00:37:35.514Z,1.80
2018-12-07T00:40:03.479Z,1.57
2018-12-07T00:42:30.986Z,1.67
2018-12-07T00:44:58.473Z,2.25
2018-12-07T00:47:25.962Z,0.90
2018-12-07T00:49:53.486Z,1.57
2018-12-07T00:52:20.978Z,1.50
2018-12-07T00:54:48.514Z,1.30
2018-12-07T00:57:16.008Z,1.70
2018-12-07T00:59:43.518Z,1.20
2018-12-07T01:02:11.011Z,1.20
2018-12-07T01:04:38.527Z,1.45
2018-12-07T01:07:06.027Z,1.10
2018-12-07T01:09:33.523Z,1.15
2018-12-07T01:12:01.181Z,1.32
2018-12-07T01:14:28.670Z,1.20
2018-12-07T01:16:56.174Z,1.22
2018-12-07T01:19:23.742Z,0.90
2018-12-07T01:21:51.241Z,1.00
2018-12-07T01:24:18.733Z,1.10
2018-12-07T01:26:46.251Z,1.25
2018-12-07T01:29:13.742Z,1.12
2018-12-07T01:31:41.257Z,1.00
2018-12-07T01:34:08.759Z,0.80
2018-12-07T01:36:36.249Z,0.90
2018-12-07T01:39:05.834Z,1.20
2018-12-07T01:41:33.326Z,1.00
2018-12-07T01:44:00.839Z,1.00
2018-12-07T01:46:28.337Z,1.30
2018-12-07T01:48:55.925Z,1.00
2018-12-07T01:51:23.414Z,1.30
2018-12-07T01:53:50.921Z,0.90
2018-12-07T01:56:18.418Z,0.90
2018-12-07T01:58:45.900Z,1.15
2018-12-07T02:01:13.422Z,0.80
2018-12-07T02:03:40.909Z,1.07
2018-12-07T02:06:08.413Z,1.00
2018-12-07T02:08:35.908Z,0.75
2018-12-07T02:11:03.418Z,0.82
2018-12-07T02:13:30.920Z,1.10
2018-12-07T02:15:58.492Z,1.40
2018-12-07T02:18:26.056Z,1.10
2018-12-07T02:20:53.542Z,1.37
2018-12-07T02:23:21.060Z,1.30
2018-12-07T02:25:48.562Z,1.10
2018-12-07T02:28:16.077Z,1.30
2018-12-07T02:30:43.562Z,1.00
2018-12-07T02:33:11.071Z,1.02
2018-12-07T02:35:38.577Z,0.80
2018-12-07T02:38:06.081Z,1.10
2018-12-07T02:40:33.574Z,1.30
2018-12-07T02:43:01.112Z,1.00
2018-12-07T02:45:28.689Z,1.00
2018-12-07T02:47:56.176Z,1.00
2018-12-07T02:50:23.727Z,0.85
2018-12-07T02:52:51.228Z,1.20
2018-12-07T02:55:18.740Z,1.15
2018-12-07T02:57:46.245Z,1.05
2018-12-07T03:00:13.754Z,1.00
2018-12-07T03:02:41.245Z,0.90
2018-12-07T03:05:08.878Z,1.05
2018-12-07T03:07:36.373Z,1.35
2018-12-07T03:10:05.549Z,1.02
2018-12-07T03:12:33.070Z,0.80
2018-12-07T03:15:00.562Z,0.95
2018-12-07T03:17:28.078Z,1.05
2018-12-07T03:19:55.565Z,1.10
2018-12-07T03:22:23.070Z,1.30
2018-12-07T03:24:50.567Z,1.20
2018-12-07T03:27:18.072Z,1.00
2018-12-07T03:29:45.594Z,1.10
2018-12-07T03:32:13.086Z,0.85
2018-12-07T03:34:40.610Z,0.90
2018-12-07T03:37:08.173Z,1.00
2018-12-07T03:39:35.716Z,1.27
2018-12-07T03:42:03.205Z,2.08
2018-12-07T03:44:30.718Z,2.77
2018-12-07T03:46:58.223Z,1.30
2018-12-07T03:49:25.705Z,1.55
2018-12-07T03:51:53.233Z,1.70
2018-12-07T03:54:20.727Z,1.80
2018-12-07T03:56:48.246Z,1.30
2018-12-07T03:59:15.753Z,1.95
2018-12-07T04:01:43.274Z,1.75
2018-12-07T04:04:10.785Z,1.60
2018-12-07T04:06:38.280Z,1.72
2018-12-07T04:09:06.927Z,1.60
2018-12-07T04:11:34.449Z,1.45
2018-12-07T04:14:02.128Z,1.50
2018-12-07T04:16:29.682Z,1.30
2018-12-07T04:18:57.262Z,1.75
2018-12-07T04:21:24.870Z,1.20
2018-12-07T04:23:52.409Z,1.50
2018-12-07T04:26:19.898Z,1.98
2018-12-07T04:28:47.408Z,1.70
2018-12-07T04:31:14.894Z,0.93
2018-12-07T04:33:42.404Z,1.30
2018-12-07T04:36:09.914Z,1.25
2018-12-07T04:38:37.407Z,1.40
2018-12-07T04:41:04.943Z,1.10
2018-12-07T04:43:32.433Z,1.20
2018-12-07T04:45:59.924Z,1.00
2018-12-07T04:48:27.434Z,1.22
2018-12-07T04:50:55.071Z,1.10
2018-12-07T04:53:22.680Z,1.35
2018-12-07T04:55:50.166Z,1.30
2018-12-07T04:58:17.655Z,0.90
2018-12-07T05:00:45.278Z,0.93
2018-12-07T05:03:12.787Z,1.10
2018-12-07T05:05:40.704Z,1.07
2018-12-07T05:08:08.223Z,1.42
2018-12-07T05:10:35.713Z,1.82
2018-12-07T05:13:03.248Z,1.57
2018-12-07T05:15:30.734Z,1.55
2018-12-07T05:17:58.249Z,1.20
2018-12-07T05:20:25.740Z,1.80
2018-12-07T05:22:53.238Z,1.90
2018-12-07T05:25:20.786Z,2.17
2018-12-07T05:27:48.282Z,2.70
2018-12-07T05:30:16.101Z,2.60
2018-12-07T05:32:43.603Z,2.62
2018-12-07T05:35:11.095Z,2.10
2018-12-07T05:37:38.607Z,2.60
2018-12-07T05:40:06.807Z,1.85
2018-12-07T05:42:34.355Z,2.25
2018-12-07T05:45:01.842Z,2.27
2018-12-07T05:47:29.333Z,2.40
2018-12-07T05:49:56.850Z,1.60
2018-12-07T05:52:24.331Z,2.03
2018-12-07T05:54:51.851Z,2.05
2018-12-07T05:57:19.341Z,2.33
2018-12-07T05:59:46.843Z,1.95
2018-12-07T06:02:14.354Z,1.60
2018-12-07T06:04:41.842Z,2.53
2018-12-07T06:07:09.359Z,3.42
2018-12-07T06:09:36.853Z,3.70
2018-12-07T06:12:04.357Z,2.77
2018-12-07T06:14:31.861Z,2.80
2018-12-07T06:16:59.379Z,3.17
2018-12-07T06:19:26.894Z,3.33
2018-12-07T06:21:54.386Z,2.92
2018-12-07T06:24:21.881Z,2.27
2018-12-07T06:26:49.389Z,2.42
2018-12-07T06:29:16.902Z,2.37
2018-12-07T06:31:44.421Z,3.15
2018-12-07T06:34:11.927Z,2.80
2018-12-07T06:36:39.431Z,2.37
2018-12-07T06:39:07.341Z,3.20
2018-12-07T06:41:34.834Z,1.67
2018-12-07T06:44:02.322Z,2.12
2018-12-07T06:46:29.834Z,2.00
2018-12-07T06:49:06.970Z,2.60
2018-12-07T06:51:34.478Z,2.00
2018-12-07T06:54:01.971Z,2.10
2018-12-07T06:56:29.471Z,2.02
2018-12-07T06:58:56.981Z,0.70
2018-12-07T07:01:24.503Z,2.37
2018-12-07T07:03:52.027Z,1.72
2018-12-07T07:06:19.518Z,1.27
2018-12-07T07:08:47.014Z,1.80
2018-12-07T07:11:14.533Z,1.80
2018-12-07T07:13:42.043Z,1.42
2018-12-07T07:16:09.555Z,1.40
2018-12-07T07:18:37.060Z,1.40
2018-12-07T07:21:04.567Z,1.37
2018-12-07T07:23:32.086Z,1.30
2018-12-07T07:25:59.582Z,1.00
2018-12-07T07:28:27.097Z,1.27
2018-12-07T07:30:54.582Z,1.20
2018-12-07T07:33:22.067Z,1.03
2018-12-07T07:35:49.562Z,1.40
2018-12-07T07:38:17.046Z,0.80
2018-12-07T07:40:44.590Z,1.00
2018-12-07T07:43:12.077Z,0.80
2018-12-07T07:45:39.578Z,1.17
2018-12-07T07:48:07.082Z,0.80
2018-12-07T07:50:34.569Z,0.80
2018-12-07T07:53:02.089Z,1.00
2018-12-07T07:55:29.571Z,0.90
2018-12-07T07:57:57.078Z,1.00
2018-12-07T08:00:24.578Z,0.70
2018-12-07T08:02:52.061Z,0.90
2018-12-07T08:05:19.562Z,0.80
2018-12-07T08:07:47.055Z,1.10
2018-12-07T08:10:14.551Z,1.00
2018-12-07T08:12:42.059Z,0.97
2018-12-07T08:15:09.650Z,1.03
2018-12-07T08:17:37.154Z,1.30
2018-12-07T08:20:05.002Z,1.03
2018-12-07T08:22:32.493Z,1.10
2018-12-07T08:24:59.993Z,0.87
2018-12-07T08:27:27.477Z,0.93
2018-12-07T08:29:54.983Z,0.80
2018-12-07T08:32:22.497Z,1.30
2018-12-07T08:34:49.986Z,1.10
2018-12-07T08:37:17.485Z,1.40
2018-12-07T08:39:44.972Z,2.67
2018-12-07T08:42:12.474Z,2.30
2018-12-07T08:44:39.982Z,2.23
2018-12-07T08:47:07.466Z,2.70
2018-12-07T08:49:40.670Z,2.90
2018-12-07T08:52:08.161Z,3.43
2018-12-07T08:54:35.666Z,2.90
2018-12-07T08:57:03.145Z,2.70
2018-12-07T08:59:30.631Z,3.00
2018-12-07T09:01:58.184Z,2.87
2018-12-07T09:04:25.679Z,3.40
2018-12-07T09:06:53.207Z,3.70
2018-12-07T09:09:20.703Z,3.20
2018-12-07T09:11:48.181Z,3.10
2018-12-07T09:14:15.682Z,2.90
2018-12-07T09:16:43.166Z,2.93
2018-12-07T09:19:10.670Z,2.87
2018-12-07T09:21:38.157Z,1.97
2018-12-07T09:24:05.651Z,2.10
2018-12-07T09:26:33.158Z,2.10
2018-12-07T09:29:00.654Z,1.30
2018-12-07T09:31:28.182Z,1.57
2018-12-07T09:33:55.772Z,1.30
2018-12-07T09:36:23.263Z,1.83
2018-12-07T09:38:50.761Z,1.87
2018-12-07T09:41:18.256Z,1.53
2018-12-07T09:43:45.770Z,2.03
2018-12-07T09:46:13.254Z,3.00
2018-12-07T09:48:40.734Z,1.60
2018-12-07T09:51:08.233Z,1.63
2018-12-07T09:53:35.745Z,1.90
2018-12-07T09:56:03.341Z,0.90
2018-12-07T09:58:30.850Z,1.40
2018-12-07T10:00:58.338Z,2.60
2018-12-07T10:03:25.833Z,2.07
2018-12-07T10:05:53.313Z,1.37
2018-12-07T10:08:20.841Z,1.57
2018-12-07T10:10:48.449Z,1.37
2018-12-07T10:13:15.936Z,1.20
2018-12-07T10:15:43.447Z,1.73
2018-12-07T10:18:10.935Z,1.40
2018-12-07T10:20:38.459Z,1.80
2018-12-07T10:23:06.000Z,1.70
2018-12-07T10:25:33.506Z,2.37
2018-12-07T10:28:01.018Z,1.73
2018-12-07T10:30:28.525Z,1.60
2018-12-07T10:32:56.040Z,1.60
2018-12-07T10:35:23.526Z,1.50
2018-12-07T10:37:51.014Z,1.10
2018-12-07T10:40:18.610Z,1.40
2018-12-07T10:42:46.191Z,1.50
2018-12-07T10:45:13.734Z,1.20
2018-12-07T10:47:41.231Z,1.00
2018-12-07T10:50:08.719Z,1.60
2018-12-07T10:52:36.233Z,1.40
2018-12-07T10:55:04.314Z,1.20
2018-12-07T10:57:31.831Z,1.07
2018-12-07T10:59:59.318Z,0.87
2018-12-07T11:02:32.649Z,0.90
2018-12-07T11:05:05.845Z,0.70
2018-12-07T11:07:39.153Z,0.97
2018-12-07T11:10:12.741Z,1.10
2018-12-07T11:12:45.878Z,1.00
2018-12-07T11:15:19.124Z,0.90
2018-12-07T11:17:59.362Z,1.23
2018-12-07T11:20:32.558Z,1.00
2018-12-07T11:23:05.798Z,0.90
2018-12-07T11:25:39.042Z,1.03
2018-12-07T11:28:12.279Z,0.83
2018-12-07T11:30:45.383Z,1.07
2018-12-07T11:33:18.695Z,1.33
2018-12-07T11:35:47.274Z,1.10
2018-12-07T11:38:14.765Z,0.93
2018-12-07T11:40:42.275Z,1.40
2018-12-07T11:43:09.775Z,1.40
2018-12-07T11:45:37.294Z,1.10
2018-12-07T11:48:04.777Z,0.97
2018-12-07T11:50:32.266Z,1.13
2018-12-07T11:52:59.773Z,1.10
2018-12-07T11:55:27.281Z,1.50
2018-12-07T11:57:54.794Z,1.47
2018-12-07T12:00:22.693Z,1.63
2018-12-07T12:02:50.186Z,1.23
2018-12-07T12:05:17.694Z,1.70
2018-12-07T12:07:45.205Z,1.20
2018-12-07T12:10:12.714Z,1.80
2018-12-07T12:12:40.205Z,1.10
2018-12-07T12:15:07.704Z,2.10
2018-12-07T12:17:35.211Z,1.30
2018-12-07T12:20:03.666Z,1.40
2018-12-07T12:22:31.154Z,1.77
2018-12-07T12:24:58.667Z,1.10
2018-12-07T12:27:26.161Z,1.80
2018-12-07T12:29:53.649Z,1.40
2018-12-07T12:32:21.155Z,1.80
2018-12-07T12:34:48.638Z,0.90
2018-12-07T12:37:16.266Z,1.40
2018-12-07T12:39:43.744Z,0.70
2018-12-07T12:42:11.239Z,1.03
2018-12-07T12:44:38.737Z,1.03
2018-12-07T12:47:06.222Z,1.63
2018-12-07T12:49:33.734Z,1.40
2018-12-07T12:52:01.223Z,0.83
2018-12-07T12:54:28.728Z,0.80
2018-12-07T12:56:56.236Z,1.10
2018-12-07T12:59:23.721Z,1.60
2018-12-07T13:01:51.254Z,1.13
2018-12-07T13:04:18.742Z,1.30
2018-12-07T13:06:46.237Z,1.00
2018-12-07T13:09:13.752Z,1.00
2018-12-07T13:11:41.266Z,1.03
2018-12-07T13:14:08.778Z,0.80
2018-12-07T13:16:36.272Z,1.37
2018-12-07T13:19:03.770Z,1.33
2018-12-07T13:21:31.278Z,1.40
2018-12-07T13:23:58.766Z,1.30
2018-12-07T13:26:26.270Z,1.50
2018-12-07T13:28:53.870Z,1.10
2018-12-07T13:31:21.358Z,1.20
2018-12-07T13:33:48.864Z,1.10
2018-12-07T13:36:16.354Z,1.37
2018-12-07T13:38:43.871Z,1.27
2018-12-07T13:41:11.565Z,1.13
2018-12-07T13:43:39.367Z,1.30
2018-12-07T13:46:07.001Z,1.03
2018-12-07T13:48:34.682Z,1.40
2018-12-07T13:51:02.396Z,1.23
2018-12-07T13:53:30.094Z,1.20
2018-12-07T13:55:57.934Z,1.77
2018-12-07T13:58:25.787Z,1.10
2018-12-07T14:00:53.460Z,1.53
2018-12-07T14:03:21.080Z,1.60
2018-12-07T14:05:48.780Z,1.50
2018-12-07T14:08:16.494Z,1.20
2018-12-07T14:10:44.201Z,0.93
2018-12-07T14:13:11.837Z,1.20
2018-12-07T14:15:39.473Z,0.93
2018-12-07T14:18:07.217Z,1.17
2018-12-07T14:20:34.808Z,1.20
2018-12-07T14:23:02.484Z,1.30
2018-12-07T14:25:30.107Z,1.07
2018-12-07T14:27:57.661Z,1.50
2018-12-07T14:30:25.225Z,0.97
2018-12-07T14:32:53.041Z,1.47
2018-12-07T14:35:20.723Z,1.40
2018-12-07T14:37:48.399Z,1.20
2018-12-07T14:40:16.039Z,1.13
2018-12-07T14:42:43.593Z,1.70
2018-12-07T14:45:11.087Z,1.90
2018-12-07T14:47:38.664Z,1.83
2018-12-07T14:50:06.611Z,1.70
2018-12-07T14:52:34.226Z,2.00
2018-12-07T14:55:02.122Z,1.50
2018-12-07T14:57:29.861Z,1.60
2018-12-07T14:59:57.672Z,1.40
2018-12-07T15:02:25.467Z,1.80
2018-12-07T15:04:53.088Z,2.20
2018-12-07T15:07:20.736Z,3.00
2018-12-07T15:09:48.330Z,3.33
2018-12-07T15:12:15.873Z,2.17
2018-12-07T15:14:43.637Z,2.50
2018-12-07T15:17:11.299Z,2.90
2018-12-07T15:19:38.934Z,3.37
2018-12-07T15:22:06.583Z,2.53
2018-12-07T15:24:34.293Z,2.50
2018-12-07T15:27:01.883Z,2.10
2018-12-07T15:29:29.572Z,2.27
2018-12-07T15:31:57.115Z,2.67
2018-12-07T15:34:24.845Z,2.20
2018-12-07T15:36:52.426Z,4.13
2018-12-07T15:39:19.993Z,4.07
2018-12-07T15:41:47.547Z,5.70
2018-12-07T15:44:15.160Z,4.43
2018-12-07T15:46:42.787Z,5.30
2018-12-07T15:49:10.552Z,5.27
2018-12-07T15:51:38.712Z,5.17
2018-12-07T15:54:06.429Z,3.03
2018-12-07T15:56:34.665Z,3.10
2018-12-07T15:59:02.459Z,3.00
2018-12-07T16:01:30.239Z,2.70
2018-12-07T16:03:58.213Z,3.10
2018-12-07T16:06:25.799Z,2.73
2018-12-07T16:08:53.290Z,2.33
2018-12-07T16:11:21.014Z,3.23
2018-12-07T16:13:48.736Z,2.37
2018-12-07T16:16:16.338Z,2.87
2018-12-07T16:18:43.870Z,3.00
2018-12-07T16:21:11.537Z,3.27
2018-12-07T16:23:39.152Z,3.33
2018-12-07T16:26:06.981Z,3.17
2018-12-07T16:28:34.690Z,2.90
2018-12-07T16:31:02.380Z,2.23
2018-12-07T16:33:30.002Z,2.53
2018-12-07T16:35:57.751Z,3.90
2018-12-07T16:38:25.342Z,2.60
2018-12-07T16:40:53.107Z,2.83
2018-12-07T16:43:20.745Z,2.10
2018-12-07T16:45:48.254Z,2.90
2018-12-07T16:48:16.023Z,2.80
2018-12-07T16:50:43.769Z,3.00
2018-12-07T16:53:11.487Z,2.97
2018-12-07T16:55:39.259Z,2.40
2018-12-07T16:58:07.156Z,2.50
2018-12-07T17:00:34.811Z,2.70
2018-12-07T17:03:02.541Z,2.30
2018-12-07T17:05:30.383Z,2.90
2018-12-07T17:07:57.998Z,3.23
2018-12-07T17:10:25.679Z,2.77
2018-12-07T17:12:53.316Z,2.30
2018-12-07T17:15:21.071Z,2.10
2018-12-07T17:17:48.888Z,2.80
2018-12-07T17:20:16.571Z,3.10
2018-12-07T17:22:44.124Z,2.37
2018-12-07T17:25:11.850Z,2.23
2018-12-07T17:27:39.424Z,1.87
2018-12-07T17:30:07.177Z,2.10
2018-12-07T17:32:34.997Z,2.40
2018-12-07T17:35:02.798Z,2.22
2018-12-07T17:37:30.690Z,2.70
2018-12-07T17:39:58.550Z,2.33
2018-12-07T17:42:29.501Z,2.10
2018-12-07T17:44:57.373Z,2.10
2018-12-07T17:47:25.158Z,2.10
2018-12-07T17:49:53.221Z,2.20
2018-12-07T17:52:21.113Z,11.38
2018-12-07T17:54:48.904Z,2.75
2018-12-07T17:57:16.747Z,3.50
2018-12-07T17:59:44.485Z,4.40
2018-12-07T18:02:12.131Z,5.22
2018-12-07T18:04:39.657Z,8.70
2018-12-07T18:07:07.150Z,3.57
2018-12-07T18:09:34.909Z,7.53
2018-12-07T18:12:02.730Z,6.62
2018-12-07T18:14:30.441Z,7.55
2018-12-07T18:16:58.075Z,4.67
2018-12-07T18:19:25.856Z,3.20
2018-12-07T18:21:53.662Z,3.20
2018-12-07T18:24:21.281Z,3.50
2018-12-07T18:26:48.832Z,2.10
2018-12-07T18:29:16.446Z,5.45
2018-12-07T18:31:43.930Z,4.55
2018-12-07T18:34:11.583Z,4.97
2018-12-07T18:36:39.291Z,4.75
2018-12-07T18:39:07.559Z,4.40
2018-12-07T18:41:35.623Z,5.97
2018-12-07T18:44:03.727Z,7.60
2018-12-07T18:46:31.528Z,5.90
2018-12-07T18:48:59.034Z,6.40
2018-12-07T18:51:26.769Z,7.03
2018-12-07T18:53:54.640Z,7.28
2018-12-07T18:56:22.367Z,7.05
2018-12-07T18:58:50.207Z,6.55
2018-12-07T19:01:17.959Z,5.67
2018-12-07T19:03:45.634Z,3.55
2018-12-07T19:06:13.298Z,3.30
2018-12-07T19:08:41.120Z,3.90
2018-12-07T19:11:09.069Z,4.23
2018-12-07T19:13:36.984Z,3.15
2018-12-07T19:16:04.677Z,4.03
2018-12-07T19:18:32.545Z,2.80
2018-12-07T19:21:00.167Z,3.07
2018-12-07T19:23:28.101Z,3.00
2018-12-07T19:25:55.817Z,3.07
2018-12-07T19:28:23.694Z,2.67
2018-12-07T19:30:51.583Z,2.63
2018-12-07T19:33:19.719Z,2.77
2018-12-07T19:35:47.432Z,2.87
2018-12-07T19:38:15.188Z,3.00
2018-12-07T19:40:42.794Z,2.53
2018-12-07T19:43:10.312Z,2.70
2018-12-07T19:45:37.898Z,3.57
2018-12-07T19:48:05.588Z,3.10
2018-12-07T19:50:33.421Z,3.47
2018-12-07T19:53:01.075Z,2.80
2018-12-07T19:55:28.797Z,4.30
2018-12-07T19:57:56.426Z,3.73
2018-12-07T20:00:24.139Z,4.10
2018-12-07T20:02:52.007Z,4.20
2018-12-07T20:05:20.034Z,3.40
2018-12-07T20:07:47.797Z,3.37
2018-12-07T20:10:15.568Z,2.70
2018-12-07T20:12:43.533Z,2.57
2018-12-07T20:15:11.119Z,2.40
2018-12-07T20:17:38.671Z,2.50
2018-12-07T20:20:06.603Z,2.70
2018-12-07T20:22:34.272Z,1.60
2018-12-07T20:25:02.117Z,2.17
2018-12-07T20:27:29.801Z,1.90
2018-12-07T20:29:57.378Z,1.77
2018-12-07T20:32:24.992Z,1.53
2018-12-07T20:34:52.586Z,1.43
2018-12-07T20:37:20.139Z,1.60
2018-12-07T20:39:47.994Z,1.50
2018-12-07T20:42:15.714Z,1.30
2018-12-07T20:44:43.258Z,1.70
2018-12-07T20:47:10.815Z,1.77
2018-12-07T20:49:38.813Z,1.60
2018-12-07T20:52:06.606Z,1.30
2018-12-07T20:54:34.298Z,0.80
2018-12-07T20:57:01.861Z,1.10
2018-12-07T20:59:29.648Z,0.87
2018-12-07T21:01:57.402Z,0.90
2018-12-07T21:04:30.404Z,0.77
2018-12-07T21:10:55.026Z,0.60
2018-12-07T21:13:47.178Z,0.83
2018-12-07T21:16:34.561Z,0.70
2018-12-07T21:19:02.156Z,0.70
2018-12-07T21:21:29.944Z,1.17
2018-12-07T21:23:57.803Z,0.70
2018-12-07T21:26:25.411Z,0.60
2018-12-07T21:28:53.355Z,0.67
2018-12-07T21:31:21.010Z,0.80
2018-12-07T21:33:51.768Z,0.53
2018-12-07T21:36:34.087Z,0.67
2018-12-07T21:39:01.991Z,0.60
2018-12-07T21:41:29.707Z,0.50
2018-12-07T21:43:57.414Z,0.60
2018-12-07T21:46:24.932Z,0.70
2018-12-07T21:48:52.696Z,0.60
2018-12-07T21:51:24.035Z,0.60
2018-12-07T21:53:52.045Z,0.70
2018-12-07T21:56:19.849Z,0.80
2018-12-07T21:58:47.481Z,0.97
2018-12-07T22:01:15.068Z,0.80
2018-12-07T22:03:42.692Z,0.93
2018-12-07T22:06:10.553Z,1.07
2018-12-07T22:08:38.205Z,0.87
2018-12-07T22:11:06.087Z,0.67
2018-12-07T22:13:33.600Z,0.70
2018-12-07T22:16:01.205Z,1.20
2018-12-07T22:18:28.728Z,0.70
2018-12-07T22:20:56.511Z,0.40
2018-12-07T22:23:24.126Z,0.60
2018-12-07T22:25:51.731Z,0.80
2018-12-07T22:28:19.528Z,0.70
2018-12-07T22:30:47.529Z,0.90
2018-12-07T22:33:15.223Z,1.13
2018-12-07T22:35:43.057Z,0.63
2018-12-07T22:38:10.968Z,0.87
2018-12-07T22:40:38.676Z,0.80
2018-12-07T22:43:06.615Z,0.70
2018-12-07T22:45:34.170Z,0.63
2018-12-07T22:48:01.696Z,0.40
2018-12-07T22:50:29.176Z,0.60
2018-12-07T22:52:56.686Z,0.50
2018-12-07T22:55:24.172Z,0.80
2018-12-07T22:57:51.669Z,0.67
2018-12-07T23:00:21.490Z,0.50
2018-12-07T23:02:49.053Z,0.63
2018-12-07T23:05:16.555Z,0.60
2018-12-07T23:07:44.050Z,0.60
2018-12-07T23:10:11.542Z,0.60
2018-12-07T23:12:39.075Z,0.83
2018-12-07T23:15:08.326Z,0.60
2018-12-07T23:17:35.841Z,0.60
2018-12-07T23:20:05.287Z,0.40
2018-12-07T23:22:32.770Z,0.40
2018-12-07T23:25:00.449Z,0.43
2018-12-07T23:27:27.926Z,0.50
2018-12-07T23:29:55.431Z,0.50
2018-12-07T23:32:22.921Z,0.63
2018-12-07T23:34:50.430Z,0.50
2018-12-07T23:37:17.933Z,0.60
2018-12-07T23:39:45.931Z,0.50
2018-12-07T23:42:13.439Z,0.60
2018-12-07T23:44:40.924Z,0.60
2018-12-07T23:47:08.430Z,0.50
2018-12-07T23:49:35.916Z,0.60
2018-12-07T23:52:03.482Z,0.50
2018-12-07T23:54:31.102Z,0.50
2018-12-07T23:56:58.590Z,0.50
2018-12-07T23:59:26.186Z,0.50
